sensor_id;sensor_type;location;lat;lon;timestamp;temperature;humidity
82991;DHT22;72806;50.832;4.864;2024-02-26T00:01:52;9.00;74.90
82991;DHT22;72806;50.832;4.864;2024-02-26T00:04:20;9.00;75.30
82991;DHT22;72806;50.832;4.864;2024-02-26T00:06:48;9.00;75.30
82991;DHT22;72806;50.832;4.864;2024-02-26T00:09:16;9.00;75.60
82991;DHT22;72806;50.832;4.864;2024-02-26T00:11:43;9.00;76.40
82991;DHT22;72806;50.832;4.864;2024-02-26T00:14:10;8.90;76.20
82991;DHT22;72806;50.832;4.864;2024-02-26T00:16:40;8.90;76.50
82991;DHT22;72806;50.832;4.864;2024-02-26T00:19:07;8.90;76.70
82991;DHT22;72806;50.832;4.864;2024-02-26T00:21:40;8.90;77.10
82991;DHT22;72806;50.832;4.864;2024-02-26T00:24:08;8.90;77.30
82991;DHT22;72806;50.832;4.864;2024-02-26T00:26:35;8.90;77.70
82991;DHT22;72806;50.832;4.864;2024-02-26T00:29:02;8.90;77.70
82991;DHT22;72806;50.832;4.864;2024-02-26T00:31:29;8.90;77.80
82991;DHT22;72806;50.832;4.864;2024-02-26T00:33:56;8.90;78.30
82991;DHT22;72806;50.832;4.864;2024-02-26T00:36:24;8.80;78.50
82991;DHT22;72806;50.832;4.864;2024-02-26T00:38:52;8.80;78.60
82991;DHT22;72806;50.832;4.864;2024-02-26T00:41:20;8.80;78.60
82991;DHT22;72806;50.832;4.864;2024-02-26T00:43:47;8.80;78.80
82991;DHT22;72806;50.832;4.864;2024-02-26T00:46:14;8.80;78.90
82991;DHT22;72806;50.832;4.864;2024-02-26T00:48:41;8.80;79.40
82991;DHT22;72806;50.832;4.864;2024-02-26T00:51:08;8.70;80.30
82991;DHT22;72806;50.832;4.864;2024-02-26T00:53:36;8.70;79.70
82991;DHT22;72806;50.832;4.864;2024-02-26T00:56:04;8.70;80.30
82991;DHT22;72806;50.832;4.864;2024-02-26T00:58:32;8.70;80.60
82991;DHT22;72806;50.832;4.864;2024-02-26T01:00:59;8.60;80.50
82991;DHT22;72806;50.832;4.864;2024-02-26T01:03:26;8.60;80.80
82991;DHT22;72806;50.832;4.864;2024-02-26T01:05:53;8.60;81.10
82991;DHT22;72806;50.832;4.864;2024-02-26T01:08:20;8.60;81.30
82991;DHT22;72806;50.832;4.864;2024-02-26T01:10:48;8.50;81.20
82991;DHT22;72806;50.832;4.864;2024-02-26T01:13:16;8.50;82.30
82991;DHT22;72806;50.832;4.864;2024-02-26T01:15:43;8.50;82.00
82991;DHT22;72806;50.832;4.864;2024-02-26T01:18:12;8.50;82.50
82991;DHT22;72806;50.832;4.864;2024-02-26T01:20:39;8.50;83.00
82991;DHT22;72806;50.832;4.864;2024-02-26T01:23:06;8.40;82.70
82991;DHT22;72806;50.832;4.864;2024-02-26T01:25:33;8.40;83.50
82991;DHT22;72806;50.832;4.864;2024-02-26T01:28:00;8.40;83.70
82991;DHT22;72806;50.832;4.864;2024-02-26T01:30:30;8.30;83.90
82991;DHT22;72806;50.832;4.864;2024-02-26T01:32:57;8.30;84.00
82991;DHT22;72806;50.832;4.864;2024-02-26T01:35:24;8.40;84.10
82991;DHT22;72806;50.832;4.864;2024-02-26T01:37:52;8.40;84.50
82991;DHT22;72806;50.832;4.864;2024-02-26T01:40:19;8.40;84.50
82991;DHT22;72806;50.832;4.864;2024-02-26T01:42:46;8.40;84.70
82991;DHT22;72806;50.832;4.864;2024-02-26T01:45:16;8.30;85.00
82991;DHT22;72806;50.832;4.864;2024-02-26T01:47:50;8.30;85.40
82991;DHT22;72806;50.832;4.864;2024-02-26T01:50:17;8.30;85.70
82991;DHT22;72806;50.832;4.864;2024-02-26T01:52:45;8.30;85.80
82991;DHT22;72806;50.832;4.864;2024-02-26T01:55:13;8.30;85.90
82991;DHT22;72806;50.832;4.864;2024-02-26T01:57:42;8.30;86.30
82991;DHT22;72806;50.832;4.864;2024-02-26T02:00:11;8.30;86.30
82991;DHT22;72806;50.832;4.864;2024-02-26T02:02:39;8.30;86.50
82991;DHT22;72806;50.832;4.864;2024-02-26T02:05:09;8.30;86.60
82991;DHT22;72806;50.832;4.864;2024-02-26T02:07:37;8.30;86.90
82991;DHT22;72806;50.832;4.864;2024-02-26T02:10:08;8.30;86.90
82991;DHT22;72806;50.832;4.864;2024-02-26T02:12:36;8.30;87.20
82991;DHT22;72806;50.832;4.864;2024-02-26T02:15:06;8.30;87.20
82991;DHT22;72806;50.832;4.864;2024-02-26T02:17:36;8.30;87.40
82991;DHT22;72806;50.832;4.864;2024-02-26T02:20:04;8.30;87.50
82991;DHT22;72806;50.832;4.864;2024-02-26T02:22:35;8.30;87.90
82991;DHT22;72806;50.832;4.864;2024-02-26T02:25:04;8.30;87.80
82991;DHT22;72806;50.832;4.864;2024-02-26T02:27:31;8.30;87.90
82991;DHT22;72806;50.832;4.864;2024-02-26T02:29:59;8.30;88.10
82991;DHT22;72806;50.832;4.864;2024-02-26T02:32:26;8.30;88.50
82991;DHT22;72806;50.832;4.864;2024-02-26T02:34:54;8.30;88.40
82991;DHT22;72806;50.832;4.864;2024-02-26T02:37:22;8.30;88.70
82991;DHT22;72806;50.832;4.864;2024-02-26T02:39:51;8.30;88.70
82991;DHT22;72806;50.832;4.864;2024-02-26T02:42:20;8.30;88.80
82991;DHT22;72806;50.832;4.864;2024-02-26T02:44:47;8.30;88.90
82991;DHT22;72806;50.832;4.864;2024-02-26T02:47:14;8.30;89.30
82991;DHT22;72806;50.832;4.864;2024-02-26T02:49:41;8.30;89.40
82991;DHT22;72806;50.832;4.864;2024-02-26T02:52:08;8.30;89.50
82991;DHT22;72806;50.832;4.864;2024-02-26T02:54:35;8.20;89.70
82991;DHT22;72806;50.832;4.864;2024-02-26T02:57:07;8.20;89.80
82991;DHT22;72806;50.832;4.864;2024-02-26T02:59:35;8.20;90.00
82991;DHT22;72806;50.832;4.864;2024-02-26T03:02:03;8.20;90.00
82991;DHT22;72806;50.832;4.864;2024-02-26T03:04:30;8.20;90.00
82991;DHT22;72806;50.832;4.864;2024-02-26T03:06:57;8.20;90.10
82991;DHT22;72806;50.832;4.864;2024-02-26T03:09:24;8.20;90.20
82991;DHT22;72806;50.832;4.864;2024-02-26T03:11:51;8.20;90.30
82991;DHT22;72806;50.832;4.864;2024-02-26T03:14:19;8.10;90.60
82991;DHT22;72806;50.832;4.864;2024-02-26T03:16:47;8.10;90.40
82991;DHT22;72806;50.832;4.864;2024-02-26T03:19:14;8.20;90.30
82991;DHT22;72806;50.832;4.864;2024-02-26T03:21:42;8.20;90.40
82991;DHT22;72806;50.832;4.864;2024-02-26T03:24:10;8.20;90.40
82991;DHT22;72806;50.832;4.864;2024-02-26T03:26:38;8.20;90.40
82991;DHT22;72806;50.832;4.864;2024-02-26T03:29:05;8.20;90.50
82991;DHT22;72806;50.832;4.864;2024-02-26T03:31:33;8.20;90.60
82991;DHT22;72806;50.832;4.864;2024-02-26T03:34:00;8.20;90.60
82991;DHT22;72806;50.832;4.864;2024-02-26T03:36:28;8.20;90.60
82991;DHT22;72806;50.832;4.864;2024-02-26T03:38:55;8.20;90.70
82991;DHT22;72806;50.832;4.864;2024-02-26T03:41:22;8.20;90.80
82991;DHT22;72806;50.832;4.864;2024-02-26T03:43:49;8.10;90.80
82991;DHT22;72806;50.832;4.864;2024-02-26T03:46:16;8.10;90.80
82991;DHT22;72806;50.832;4.864;2024-02-26T03:48:44;8.10;90.80
82991;DHT22;72806;50.832;4.864;2024-02-26T03:51:12;8.10;90.90
82991;DHT22;72806;50.832;4.864;2024-02-26T03:53:39;8.10;91.00
82991;DHT22;72806;50.832;4.864;2024-02-26T03:56:07;8.10;91.00
82991;DHT22;72806;50.832;4.864;2024-02-26T03:58:35;8.10;91.00
82991;DHT22;72806;50.832;4.864;2024-02-26T04:01:02;8.10;91.20
82991;DHT22;72806;50.832;4.864;2024-02-26T04:03:29;8.10;91.10
82991;DHT22;72806;50.832;4.864;2024-02-26T04:05:58;8.10;91.10
82991;DHT22;72806;50.832;4.864;2024-02-26T04:08:25;8.00;91.20
82991;DHT22;72806;50.832;4.864;2024-02-26T04:10:52;8.00;91.30
82991;DHT22;72806;50.832;4.864;2024-02-26T04:13:19;8.00;91.30
82991;DHT22;72806;50.832;4.864;2024-02-26T04:15:46;8.00;91.40
82991;DHT22;72806;50.832;4.864;2024-02-26T04:18:13;8.00;91.50
82991;DHT22;72806;50.832;4.864;2024-02-26T04:20:40;8.00;91.50
82991;DHT22;72806;50.832;4.864;2024-02-26T04:23:09;8.00;91.50
82991;DHT22;72806;50.832;4.864;2024-02-26T04:25:36;8.00;91.60
82991;DHT22;72806;50.832;4.864;2024-02-26T04:28:04;8.00;91.60
82991;DHT22;72806;50.832;4.864;2024-02-26T04:30:31;8.00;91.70
82991;DHT22;72806;50.832;4.864;2024-02-26T04:32:58;8.00;91.60
82991;DHT22;72806;50.832;4.864;2024-02-26T04:35:25;8.00;91.60
82991;DHT22;72806;50.832;4.864;2024-02-26T04:37:53;8.00;91.60
82991;DHT22;72806;50.832;4.864;2024-02-26T04:40:21;8.00;91.60
82991;DHT22;72806;50.832;4.864;2024-02-26T04:42:48;8.00;91.60
82991;DHT22;72806;50.832;4.864;2024-02-26T04:45:15;8.00;91.70
82991;DHT22;72806;50.832;4.864;2024-02-26T04:47:42;8.00;91.80
82991;DHT22;72806;50.832;4.864;2024-02-26T04:50:09;8.00;91.80
82991;DHT22;72806;50.832;4.864;2024-02-26T04:52:36;8.00;91.80
82991;DHT22;72806;50.832;4.864;2024-02-26T04:55:04;8.00;91.90
82991;DHT22;72806;50.832;4.864;2024-02-26T04:57:32;8.00;91.90
82991;DHT22;72806;50.832;4.864;2024-02-26T04:59:59;7.90;92.10
82991;DHT22;72806;50.832;4.864;2024-02-26T05:02:27;7.90;92.00
82991;DHT22;72806;50.832;4.864;2024-02-26T05:04:56;7.90;92.10
82991;DHT22;72806;50.832;4.864;2024-02-26T05:07:23;7.90;92.20
82991;DHT22;72806;50.832;4.864;2024-02-26T05:09:50;7.90;92.20
82991;DHT22;72806;50.832;4.864;2024-02-26T05:12:17;7.90;92.30
82991;DHT22;72806;50.832;4.864;2024-02-26T05:14:46;7.90;92.50
82991;DHT22;72806;50.832;4.864;2024-02-26T05:17:13;7.90;92.40
82991;DHT22;72806;50.832;4.864;2024-02-26T05:19:41;7.80;92.50
82991;DHT22;72806;50.832;4.864;2024-02-26T05:22:08;7.80;92.60
82991;DHT22;72806;50.832;4.864;2024-02-26T05:24:37;7.80;92.60
82991;DHT22;72806;50.832;4.864;2024-02-26T05:27:05;7.80;92.60
82991;DHT22;72806;50.832;4.864;2024-02-26T05:29:32;7.80;92.60
82991;DHT22;72806;50.832;4.864;2024-02-26T05:32:00;7.80;92.70
82991;DHT22;72806;50.832;4.864;2024-02-26T05:34:27;7.80;92.70
82991;DHT22;72806;50.832;4.864;2024-02-26T05:36:56;7.80;92.80
82991;DHT22;72806;50.832;4.864;2024-02-26T05:39:23;7.70;92.70
82991;DHT22;72806;50.832;4.864;2024-02-26T05:41:50;7.80;92.90
82991;DHT22;72806;50.832;4.864;2024-02-26T05:44:17;7.70;92.90
82991;DHT22;72806;50.832;4.864;2024-02-26T05:46:44;7.70;92.90
82991;DHT22;72806;50.832;4.864;2024-02-26T05:49:12;7.80;93.00
82991;DHT22;72806;50.832;4.864;2024-02-26T05:51:39;7.70;93.00
82991;DHT22;72806;50.832;4.864;2024-02-26T05:54:06;7.70;93.10
82991;DHT22;72806;50.832;4.864;2024-02-26T05:56:34;7.80;93.20
82991;DHT22;72806;50.832;4.864;2024-02-26T05:59:01;7.70;93.10
82991;DHT22;72806;50.832;4.864;2024-02-26T06:01:28;7.70;93.30
82991;DHT22;72806;50.832;4.864;2024-02-26T06:03:56;7.70;93.40
82991;DHT22;72806;50.832;4.864;2024-02-26T06:06:25;7.70;93.40
82991;DHT22;72806;50.832;4.864;2024-02-26T06:08:52;7.70;93.40
82991;DHT22;72806;50.832;4.864;2024-02-26T06:11:19;7.60;93.30
82991;DHT22;72806;50.832;4.864;2024-02-26T06:13:48;7.60;93.40
82991;DHT22;72806;50.832;4.864;2024-02-26T06:16:15;7.60;93.40
82991;DHT22;72806;50.832;4.864;2024-02-26T06:18:42;7.60;93.40
82991;DHT22;72806;50.832;4.864;2024-02-26T06:21:11;7.60;93.60
82991;DHT22;72806;50.832;4.864;2024-02-26T06:23:39;7.60;93.60
82991;DHT22;72806;50.832;4.864;2024-02-26T06:26:07;7.60;93.60
82991;DHT22;72806;50.832;4.864;2024-02-26T06:28:34;7.60;93.70
82991;DHT22;72806;50.832;4.864;2024-02-26T06:31:01;7.60;93.70
82991;DHT22;72806;50.832;4.864;2024-02-26T06:33:28;7.60;93.70
82991;DHT22;72806;50.832;4.864;2024-02-26T06:35:56;7.60;93.70
82991;DHT22;72806;50.832;4.864;2024-02-26T06:38:23;7.60;93.80
82991;DHT22;72806;50.832;4.864;2024-02-26T06:40:52;7.60;93.70
82991;DHT22;72806;50.832;4.864;2024-02-26T06:43:19;7.60;93.80
82991;DHT22;72806;50.832;4.864;2024-02-26T06:45:46;7.60;93.80
82991;DHT22;72806;50.832;4.864;2024-02-26T06:48:13;7.60;93.80
82991;DHT22;72806;50.832;4.864;2024-02-26T06:50:40;7.60;93.80
82991;DHT22;72806;50.832;4.864;2024-02-26T06:53:08;7.60;93.90
82991;DHT22;72806;50.832;4.864;2024-02-26T06:55:35;7.60;93.90
82991;DHT22;72806;50.832;4.864;2024-02-26T06:58:04;7.50;93.90
82991;DHT22;72806;50.832;4.864;2024-02-26T07:00:31;7.50;94.00
82991;DHT22;72806;50.832;4.864;2024-02-26T07:02:58;5.50;93.40
82991;DHT22;72806;50.832;4.864;2024-02-26T07:05:25;7.50;93.90
82991;DHT22;72806;50.832;4.864;2024-02-26T07:07:53;7.60;94.00
82991;DHT22;72806;50.832;4.864;2024-02-26T07:10:20;7.50;94.00
82991;DHT22;72806;50.832;4.864;2024-02-26T07:12:47;7.50;94.10
82991;DHT22;72806;50.832;4.864;2024-02-26T07:15:16;7.50;94.20
82991;DHT22;72806;50.832;4.864;2024-02-26T07:17:44;7.50;94.10
82991;DHT22;72806;50.832;4.864;2024-02-26T07:20:13;7.50;94.10
82991;DHT22;72806;50.832;4.864;2024-02-26T07:22:41;7.50;94.20
82991;DHT22;72806;50.832;4.864;2024-02-26T07:25:08;7.50;94.20
82991;DHT22;72806;50.832;4.864;2024-02-26T07:27:38;7.50;94.50
82991;DHT22;72806;50.832;4.864;2024-02-26T07:30:06;7.50;94.30
82991;DHT22;72806;50.832;4.864;2024-02-26T07:32:36;7.50;94.30
82991;DHT22;72806;50.832;4.864;2024-02-26T07:35:04;7.50;94.20
82991;DHT22;72806;50.832;4.864;2024-02-26T07:37:31;7.50;94.30
82991;DHT22;72806;50.832;4.864;2024-02-26T07:39:59;7.50;94.20
82991;DHT22;72806;50.832;4.864;2024-02-26T07:42:26;7.50;94.30
82991;DHT22;72806;50.832;4.864;2024-02-26T07:44:53;7.50;94.20
82991;DHT22;72806;50.832;4.864;2024-02-26T07:47:20;7.50;94.20
82991;DHT22;72806;50.832;4.864;2024-02-26T07:49:48;7.50;94.20
82991;DHT22;72806;50.832;4.864;2024-02-26T07:52:16;7.50;94.30
82991;DHT22;72806;50.832;4.864;2024-02-26T07:54:43;7.50;94.30
82991;DHT22;72806;50.832;4.864;2024-02-26T07:57:11;7.50;94.20
82991;DHT22;72806;50.832;4.864;2024-02-26T07:59:41;7.50;94.20
82991;DHT22;72806;50.832;4.864;2024-02-26T08:02:08;7.50;94.30
82991;DHT22;72806;50.832;4.864;2024-02-26T08:04:35;7.50;94.20
82991;DHT22;72806;50.832;4.864;2024-02-26T08:07:04;7.50;94.20
82991;DHT22;72806;50.832;4.864;2024-02-26T08:09:31;7.50;94.20
82991;DHT22;72806;50.832;4.864;2024-02-26T08:11:59;7.50;94.20
82991;DHT22;72806;50.832;4.864;2024-02-26T08:14:26;7.60;94.10
82991;DHT22;72806;50.832;4.864;2024-02-26T08:16:53;7.60;94.10
82991;DHT22;72806;50.832;4.864;2024-02-26T08:19:20;7.60;94.10
82991;DHT22;72806;50.832;4.864;2024-02-26T08:21:47;7.60;94.10
82991;DHT22;72806;50.832;4.864;2024-02-26T08:24:16;7.70;94.10
82991;DHT22;72806;50.832;4.864;2024-02-26T08:26:43;7.60;94.00
82991;DHT22;72806;50.832;4.864;2024-02-26T08:29:11;7.70;94.00
82991;DHT22;72806;50.832;4.864;2024-02-26T08:31:38;7.70;94.00
82991;DHT22;72806;50.832;4.864;2024-02-26T08:34:06;7.70;94.00
82991;DHT22;72806;50.832;4.864;2024-02-26T08:36:34;7.70;94.00
82991;DHT22;72806;50.832;4.864;2024-02-26T08:39:04;7.70;94.00
82991;DHT22;72806;50.832;4.864;2024-02-26T08:41:34;7.70;94.00
82991;DHT22;72806;50.832;4.864;2024-02-26T08:44:04;7.70;94.00
82991;DHT22;72806;50.832;4.864;2024-02-26T08:46:31;7.70;94.00
82991;DHT22;72806;50.832;4.864;2024-02-26T08:48:58;7.70;94.00
82991;DHT22;72806;50.832;4.864;2024-02-26T08:51:25;7.70;93.90
82991;DHT22;72806;50.832;4.864;2024-02-26T08:53:53;7.70;94.00
82991;DHT22;72806;50.832;4.864;2024-02-26T08:56:21;7.70;94.00
82991;DHT22;72806;50.832;4.864;2024-02-26T08:58:49;7.70;94.00
82991;DHT22;72806;50.832;4.864;2024-02-26T09:01:19;7.70;94.00
82991;DHT22;72806;50.832;4.864;2024-02-26T09:03:46;7.60;94.00
82991;DHT22;72806;50.832;4.864;2024-02-26T09:06:15;7.70;94.00
82991;DHT22;72806;50.832;4.864;2024-02-26T09:08:42;7.60;94.10
82991;DHT22;72806;50.832;4.864;2024-02-26T09:11:09;7.60;94.00
82991;DHT22;72806;50.832;4.864;2024-02-26T09:13:37;7.60;94.00
82991;DHT22;72806;50.832;4.864;2024-02-26T09:16:06;7.60;94.00
82991;DHT22;72806;50.832;4.864;2024-02-26T09:18:33;7.60;94.00
82991;DHT22;72806;50.832;4.864;2024-02-26T09:21:04;7.70;94.00
82991;DHT22;72806;50.832;4.864;2024-02-26T09:23:32;7.60;94.00
82991;DHT22;72806;50.832;4.864;2024-02-26T09:26:00;7.60;94.00
82991;DHT22;72806;50.832;4.864;2024-02-26T09:28:28;7.60;94.00
82991;DHT22;72806;50.832;4.864;2024-02-26T09:30:57;7.60;94.00
82991;DHT22;72806;50.832;4.864;2024-02-26T09:33:26;7.60;94.00
82991;DHT22;72806;50.832;4.864;2024-02-26T09:35:53;7.60;94.00
82991;DHT22;72806;50.832;4.864;2024-02-26T09:38:20;7.70;94.10
82991;DHT22;72806;50.832;4.864;2024-02-26T09:40:47;7.70;94.10
82991;DHT22;72806;50.832;4.864;2024-02-26T09:43:15;7.70;94.10
82991;DHT22;72806;50.832;4.864;2024-02-26T09:45:44;7.70;94.10
82991;DHT22;72806;50.832;4.864;2024-02-26T09:48:12;7.70;94.00
82991;DHT22;72806;50.832;4.864;2024-02-26T09:50:42;7.70;94.10
82991;DHT22;72806;50.832;4.864;2024-02-26T09:53:11;7.70;94.00
82991;DHT22;72806;50.832;4.864;2024-02-26T09:55:40;7.70;94.00
82991;DHT22;72806;50.832;4.864;2024-02-26T09:58:09;7.70;94.00
82991;DHT22;72806;50.832;4.864;2024-02-26T10:00:43;7.70;93.90
82991;DHT22;72806;50.832;4.864;2024-02-26T10:03:14;7.70;94.00
82991;DHT22;72806;50.832;4.864;2024-02-26T10:05:44;7.70;93.90
82991;DHT22;72806;50.832;4.864;2024-02-26T10:08:12;7.70;94.00
82991;DHT22;72806;50.832;4.864;2024-02-26T10:10:40;7.70;93.90
82991;DHT22;72806;50.832;4.864;2024-02-26T10:13:08;7.70;93.90
82991;DHT22;72806;50.832;4.864;2024-02-26T10:15:37;7.70;94.00
82991;DHT22;72806;50.832;4.864;2024-02-26T10:18:04;7.70;93.90
82991;DHT22;72806;50.832;4.864;2024-02-26T10:20:32;7.70;94.00
82991;DHT22;72806;50.832;4.864;2024-02-26T10:23:02;7.60;93.90
82991;DHT22;72806;50.832;4.864;2024-02-26T10:25:30;7.70;93.90
82991;DHT22;72806;50.832;4.864;2024-02-26T10:28:00;7.70;93.90
82991;DHT22;72806;50.832;4.864;2024-02-26T10:30:29;7.70;94.00
82991;DHT22;72806;50.832;4.864;2024-02-26T10:32:56;7.70;93.90
82991;DHT22;72806;50.832;4.864;2024-02-26T10:35:23;7.70;93.90
82991;DHT22;72806;50.832;4.864;2024-02-26T10:37:52;7.70;93.90
82991;DHT22;72806;50.832;4.864;2024-02-26T10:40:21;7.70;93.90
82991;DHT22;72806;50.832;4.864;2024-02-26T10:42:48;7.70;93.90
82991;DHT22;72806;50.832;4.864;2024-02-26T10:45:16;7.70;94.00
82991;DHT22;72806;50.832;4.864;2024-02-26T10:47:43;7.70;94.00
82991;DHT22;72806;50.832;4.864;2024-02-26T10:50:13;7.70;94.00
82991;DHT22;72806;50.832;4.864;2024-02-26T10:52:42;7.70;93.90
82991;DHT22;72806;50.832;4.864;2024-02-26T10:55:13;7.70;93.90
82991;DHT22;72806;50.832;4.864;2024-02-26T10:57:45;7.80;94.00
82991;DHT22;72806;50.832;4.864;2024-02-26T11:00:14;7.80;93.90
82991;DHT22;72806;50.832;4.864;2024-02-26T11:02:44;7.80;93.90
82991;DHT22;72806;50.832;4.864;2024-02-26T11:05:12;7.80;93.80
82991;DHT22;72806;50.832;4.864;2024-02-26T11:07:41;7.80;93.90
82991;DHT22;72806;50.832;4.864;2024-02-26T11:10:11;7.80;93.90
82991;DHT22;72806;50.832;4.864;2024-02-26T11:12:39;7.80;93.90
82991;DHT22;72806;50.832;4.864;2024-02-26T11:15:09;7.80;93.90
82991;DHT22;72806;50.832;4.864;2024-02-26T11:17:38;7.80;93.90
82991;DHT22;72806;50.832;4.864;2024-02-26T11:20:09;7.80;94.10
82991;DHT22;72806;50.832;4.864;2024-02-26T11:22:38;7.90;94.00
82991;DHT22;72806;50.832;4.864;2024-02-26T11:25:06;7.90;93.90
82991;DHT22;72806;50.832;4.864;2024-02-26T11:27:36;7.90;93.90
82991;DHT22;72806;50.832;4.864;2024-02-26T11:30:11;7.90;93.80
82991;DHT22;72806;50.832;4.864;2024-02-26T11:32:38;7.90;93.80
82991;DHT22;72806;50.832;4.864;2024-02-26T11:35:07;7.90;93.70
82991;DHT22;72806;50.832;4.864;2024-02-26T11:37:36;7.80;93.70
82991;DHT22;72806;50.832;4.864;2024-02-26T11:40:04;7.80;93.70
82991;DHT22;72806;50.832;4.864;2024-02-26T11:42:32;7.80;93.70
82991;DHT22;72806;50.832;4.864;2024-02-26T11:45:00;7.80;93.70
82991;DHT22;72806;50.832;4.864;2024-02-26T11:47:29;7.80;93.60
82991;DHT22;72806;50.832;4.864;2024-02-26T11:49:56;7.80;93.50
82991;DHT22;72806;50.832;4.864;2024-02-26T11:52:23;7.80;93.60
82991;DHT22;72806;50.832;4.864;2024-02-26T11:54:51;7.80;93.70
82991;DHT22;72806;50.832;4.864;2024-02-26T11:57:24;7.80;93.60
82991;DHT22;72806;50.832;4.864;2024-02-26T11:59:52;7.80;93.60
82991;DHT22;72806;50.832;4.864;2024-02-26T12:02:39;7.80;93.50
82991;DHT22;72806;50.832;4.864;2024-02-26T12:05:09;7.90;93.60
82991;DHT22;72806;50.832;4.864;2024-02-26T12:07:40;7.90;93.50
82991;DHT22;72806;50.832;4.864;2024-02-26T12:10:31;7.90;93.50
82991;DHT22;72806;50.832;4.864;2024-02-26T12:13:04;7.90;93.40
82991;DHT22;72806;50.832;4.864;2024-02-26T12:15:33;7.90;93.30
82991;DHT22;72806;50.832;4.864;2024-02-26T12:18:04;7.90;93.40
82991;DHT22;72806;50.832;4.864;2024-02-26T12:20:32;7.90;93.40
82991;DHT22;72806;50.832;4.864;2024-02-26T12:23:02;7.90;93.30
82991;DHT22;72806;50.832;4.864;2024-02-26T12:25:30;8.00;93.40
82991;DHT22;72806;50.832;4.864;2024-02-26T12:27:58;8.00;93.30
82991;DHT22;72806;50.832;4.864;2024-02-26T12:30:26;8.00;93.30
82991;DHT22;72806;50.832;4.864;2024-02-26T12:32:56;8.00;93.20
82991;DHT22;72806;50.832;4.864;2024-02-26T12:35:25;8.00;93.10
82991;DHT22;72806;50.832;4.864;2024-02-26T12:37:54;8.10;93.30
82991;DHT22;72806;50.832;4.864;2024-02-26T12:40:22;8.10;93.30
82991;DHT22;72806;50.832;4.864;2024-02-26T12:42:49;8.20;93.10
82991;DHT22;72806;50.832;4.864;2024-02-26T12:45:16;10.70;93.90
82991;DHT22;72806;50.832;4.864;2024-02-26T12:47:44;8.20;93.10
82991;DHT22;72806;50.832;4.864;2024-02-26T12:50:13;8.20;93.10
82991;DHT22;72806;50.832;4.864;2024-02-26T12:52:43;8.20;93.00
82991;DHT22;72806;50.832;4.864;2024-02-26T12:55:14;8.20;92.90
82991;DHT22;72806;50.832;4.864;2024-02-26T12:57:42;8.20;92.90
82991;DHT22;72806;50.832;4.864;2024-02-26T13:00:13;8.20;92.80
82991;DHT22;72806;50.832;4.864;2024-02-26T13:02:41;8.20;92.70
82991;DHT22;72806;50.832;4.864;2024-02-26T13:05:11;8.10;92.60
82991;DHT22;72806;50.832;4.864;2024-02-26T13:07:42;8.10;92.50
82991;DHT22;72806;50.832;4.864;2024-02-26T13:10:10;8.10;92.50
82991;DHT22;72806;50.832;4.864;2024-02-26T13:12:43;8.10;92.40
82991;DHT22;72806;50.832;4.864;2024-02-26T13:15:16;8.00;92.40
82991;DHT22;72806;50.832;4.864;2024-02-26T13:17:44;8.00;92.40
82991;DHT22;72806;50.832;4.864;2024-02-26T13:20:12;8.00;92.40
82991;DHT22;72806;50.832;4.864;2024-02-26T13:22:42;7.90;92.30
82991;DHT22;72806;50.832;4.864;2024-02-26T13:25:09;7.90;92.30
82991;DHT22;72806;50.832;4.864;2024-02-26T13:27:36;7.90;92.40
82991;DHT22;72806;50.832;4.864;2024-02-26T13:30:05;7.90;92.30
82991;DHT22;72806;50.832;4.864;2024-02-26T13:32:34;7.90;92.30
82991;DHT22;72806;50.832;4.864;2024-02-26T13:35:06;7.90;92.30
82991;DHT22;72806;50.832;4.864;2024-02-26T13:37:34;7.90;92.40
82991;DHT22;72806;50.832;4.864;2024-02-26T13:40:04;7.90;92.20
82991;DHT22;72806;50.832;4.864;2024-02-26T13:42:32;7.90;92.10
82991;DHT22;72806;50.832;4.864;2024-02-26T13:44:59;7.90;92.10
82991;DHT22;72806;50.832;4.864;2024-02-26T13:47:26;7.80;92.10
82991;DHT22;72806;50.832;4.864;2024-02-26T13:49:54;7.80;92.10
82991;DHT22;72806;50.832;4.864;2024-02-26T13:52:22;7.80;92.10
82991;DHT22;72806;50.832;4.864;2024-02-26T13:54:49;7.80;92.20
82991;DHT22;72806;50.832;4.864;2024-02-26T13:57:19;7.80;92.30
82991;DHT22;72806;50.832;4.864;2024-02-26T13:59:46;7.80;92.40
82991;DHT22;72806;50.832;4.864;2024-02-26T14:02:13;7.80;92.40
82991;DHT22;72806;50.832;4.864;2024-02-26T14:04:40;7.80;92.40
82991;DHT22;72806;50.832;4.864;2024-02-26T14:07:07;7.80;92.50
82991;DHT22;72806;50.832;4.864;2024-02-26T14:09:35;7.80;92.50
82991;DHT22;72806;50.832;4.864;2024-02-26T14:12:03;7.80;92.50
82991;DHT22;72806;50.832;4.864;2024-02-26T14:14:31;7.90;92.60
82991;DHT22;72806;50.832;4.864;2024-02-26T14:17:02;7.80;92.70
82991;DHT22;72806;50.832;4.864;2024-02-26T14:19:29;7.80;92.70
82991;DHT22;72806;50.832;4.864;2024-02-26T14:21:56;7.80;92.70
82991;DHT22;72806;50.832;4.864;2024-02-26T14:24:23;7.80;92.80
82991;DHT22;72806;50.832;4.864;2024-02-26T14:26:51;7.80;92.80
82991;DHT22;72806;50.832;4.864;2024-02-26T14:29:18;7.90;92.80
82991;DHT22;72806;50.832;4.864;2024-02-26T14:31:46;7.90;92.80
82991;DHT22;72806;50.832;4.864;2024-02-26T14:34:13;7.90;92.70
82991;DHT22;72806;50.832;4.864;2024-02-26T14:36:43;7.90;92.60
82991;DHT22;72806;50.832;4.864;2024-02-26T14:39:10;7.90;92.70
82991;DHT22;72806;50.832;4.864;2024-02-26T14:41:38;7.90;92.70
82991;DHT22;72806;50.832;4.864;2024-02-26T14:44:05;7.90;92.80
82991;DHT22;72806;50.832;4.864;2024-02-26T14:46:33;7.90;92.70
82991;DHT22;72806;50.832;4.864;2024-02-26T14:49:01;7.90;92.70
82991;DHT22;72806;50.832;4.864;2024-02-26T14:51:28;7.90;92.80
82991;DHT22;72806;50.832;4.864;2024-02-26T14:53:56;7.90;92.80
82991;DHT22;72806;50.832;4.864;2024-02-26T14:56:25;7.80;92.80
82991;DHT22;72806;50.832;4.864;2024-02-26T14:58:52;7.80;92.90
82991;DHT22;72806;50.832;4.864;2024-02-26T15:01:19;7.80;92.90
82991;DHT22;72806;50.832;4.864;2024-02-26T15:03:46;7.80;92.90
82991;DHT22;72806;50.832;4.864;2024-02-26T15:06:14;7.80;93.00
82991;DHT22;72806;50.832;4.864;2024-02-26T15:08:41;7.80;93.00
82991;DHT22;72806;50.832;4.864;2024-02-26T15:11:09;7.80;93.00
82991;DHT22;72806;50.832;4.864;2024-02-26T15:13:36;7.80;93.10
82991;DHT22;72806;50.832;4.864;2024-02-26T15:16:04;7.80;93.10
82991;DHT22;72806;50.832;4.864;2024-02-26T15:18:31;7.80;93.00
82991;DHT22;72806;50.832;4.864;2024-02-26T15:20:58;7.80;93.00
82991;DHT22;72806;50.832;4.864;2024-02-26T15:23:27;7.90;93.00
82991;DHT22;72806;50.832;4.864;2024-02-26T15:25:54;7.90;93.00
82991;DHT22;72806;50.832;4.864;2024-02-26T15:28:21;7.90;92.90
82991;DHT22;72806;50.832;4.864;2024-02-26T15:30:48;7.90;92.80
82991;DHT22;72806;50.832;4.864;2024-02-26T15:33:15;7.90;92.80
82991;DHT22;72806;50.832;4.864;2024-02-26T15:35:43;7.90;92.90
82991;DHT22;72806;50.832;4.864;2024-02-26T15:38:10;7.90;92.80
82991;DHT22;72806;50.832;4.864;2024-02-26T15:40:40;7.90;92.80
82991;DHT22;72806;50.832;4.864;2024-02-26T15:43:08;7.90;92.80
82991;DHT22;72806;50.832;4.864;2024-02-26T15:45:35;7.90;92.80
82991;DHT22;72806;50.832;4.864;2024-02-26T15:48:02;7.90;92.90
82991;DHT22;72806;50.832;4.864;2024-02-26T15:50:29;7.90;92.90